Time;durP1;ratioP1;P1;durP2;ratioP2;P2;SDS_P1;SDS_P2;PMS_P1;PMS_P2;Temp;Humidity;BMP_temperature;BMP_pressure;BME280_temperature;BME280_humidity;BME280_pressure;Samples;Min_cycle;Max_cycle;Signal;HPM_P1;HPM_P2
2021/12/13 00:02:11;;;;;;;168.80;52.43;;;-3272.50;75.10;;;;;;5007798;28;20614;-82
2021/12/13 00:04:58;;;;;;;158.07;52.90;;;-3272.50;75.10;;;;;;5015129;28;20022;-82
2021/12/13 00:07:26;;;;;;;;;;;-3272.50;75.10;;;;;;5015528;28;20034;-81
2021/12/13 00:09:55;;;;;;;154.20;49.40;;;-3272.50;75.10;;;;;;5015148;28;19912;-81
2021/12/13 00:12:36;;;;;;;162.57;52.13;;;-3272.50;74.90;;;;;;5015144;28;20033;-82
2021/12/13 00:15:06;;;;;;;141.00;48.83;;;-3272.50;74.90;;;;;;5014934;28;20491;-82
2021/12/13 00:17:45;;;;;;;152.57;50.47;;;-3272.40;75.00;;;;;;5014407;28;20149;-82
2021/12/13 00:20:27;;;;;;;158.20;53.17;;;-3272.40;75.00;;;;;;5015497;28;20034;-81
2021/12/13 00:22:54;;;;;;;139.40;48.00;;;-3272.40;75.00;;;;;;5015619;28;20022;-82
2021/12/13 00:25:25;;;;;;;142.27;49.20;;;-3272.40;75.00;;;;;;5015328;28;20034;-82
2021/12/13 00:28:06;;;;;;;139.27;49.37;;;-3272.30;75.00;;;;;;5016247;28;20030;-82
2021/12/13 00:31:11;;;;;;;154.20;48.80;;;-3272.30;75.00;;;;;;5015490;28;20071;-81
2021/12/13 00:34:00;;;;;;;137.60;49.33;;;-3272.30;75.00;;;;;;5005102;28;20033;-82
2021/12/13 00:36:30;;;;;;;133.30;50.83;;;-3272.30;74.90;;;;;;5014650;28;20088;-80
2021/12/13 00:39:21;;;;;;;139.50;48.73;;;-3272.20;74.90;;;;;;5014495;28;20050;-82
2021/12/13 00:41:48;;;;;;;148.70;51.43;;;-3272.20;74.90;;;;;;5012023;28;20038;-82
2021/12/13 00:44:24;;;;;;;150.50;49.17;;;-3272.20;75.00;;;;;;5015282;28;20086;-82
2021/12/13 00:46:52;;;;;;;162.43;53.72;;;-3272.20;75.00;;;;;;5014537;28;20030;-80
2021/12/13 00:49:21;;;;;;;154.50;52.17;;;-3272.20;75.00;;;;;;5013764;28;20018;-82
2021/12/13 00:51:50;;;;;;;147.67;49.60;;;-3272.20;75.00;;;;;;5014180;28;20026;-81
2021/12/13 00:54:21;;;;;;;155.00;50.70;;;-3272.20;75.00;;;;;;5014707;28;20114;-82
2021/12/13 00:56:58;;;;;;;155.23;52.77;;;-3272.20;75.10;;;;;;5014200;28;20061;-82
2021/12/13 00:59:37;;;;;;;145.07;50.63;;;-3272.10;75.00;;;;;;5016287;28;20434;-82
2021/12/13 01:02:09;;;;;;;153.97;53.30;;;-3272.20;75.10;;;;;;5014713;28;20082;-81
2021/12/13 01:04:50;;;;;;;168.33;53.63;;;-3272.20;75.10;;;;;;5015285;28;20093;-81
2021/12/13 01:07:54;;;;;;;142.93;52.73;;;-3272.20;75.10;;;;;;5014322;28;20084;-82
2021/12/13 01:10:42;;;;;;;165.43;57.50;;;-3272.20;75.10;;;;;;5014293;28;20028;-82
2021/12/13 01:13:23;;;;;;;160.20;54.87;;;-3272.20;75.00;;;;;;5014167;28;20390;-81
2021/12/13 01:16:09;;;;;;;164.40;55.73;;;-3272.20;75.00;;;;;;5014361;28;20085;-81
2021/12/13 01:19:13;;;;;;;166.48;58.22;;;-3272.20;75.00;;;;;;5014296;28;20029;-82
2021/12/13 01:22:16;;;;;;;173.27;58.10;;;-3272.20;75.00;;;;;;5014279;28;20391;-82
2021/12/13 01:27:39;;;;;;;166.00;56.37;;;-3272.20;75.00;;;;;;5014867;28;20121;-82
2021/12/13 01:30:11;;;;;;;156.40;49.80;;;-3272.20;75.00;;;;;;5013573;28;20379;-81
2021/12/13 01:32:43;;;;;;;177.93;58.27;;;-3272.20;75.00;;;;;;5005729;28;20030;-82
2021/12/13 01:35:22;;;;;;;180.53;59.03;;;-3272.20;75.00;;;;;;5013859;28;20029;-82
2021/12/13 01:37:52;;;;;;;180.83;65.07;;;-3272.20;75.10;;;;;;5014957;28;20038;-82
2021/12/13 01:40:23;;;;;;;180.37;61.70;;;-3272.20;75.20;;;;;;5013611;28;20028;-81
2021/12/13 01:43:03;;;;;;;181.00;61.80;;;-3272.20;75.20;;;;;;5013693;28;20045;-81
2021/12/13 01:45:32;;;;;;;173.20;59.33;;;-3272.30;75.20;;;;;;5014854;28;20040;-82
2021/12/13 01:48:01;;;;;;;195.70;61.10;;;-3272.30;75.20;;;;;;5013683;28;20054;-83
2021/12/13 01:50:31;;;;;;;186.83;63.60;;;-3272.30;75.20;;;;;;5013485;28;20075;-82
2021/12/13 01:53:00;;;;;;;206.93;66.03;;;-3272.30;75.20;;;;;;5013759;28;20014;-82
2021/12/13 01:55:34;;;;;;;199.57;67.23;;;-3272.30;75.30;;;;;;5013645;28;20036;-82
2021/12/13 02:01:11;;;;;;;200.87;69.90;;;-3272.40;75.30;;;;;;5014850;28;20040;-82
2021/12/13 02:03:54;;;;;;;172.10;59.87;;;-3272.40;75.30;;;;;;5013283;28;20399;-82
2021/12/13 02:06:25;;;;;;;200.10;66.17;;;-3272.40;75.30;;;;;;5013355;28;20072;-82
2021/12/13 02:08:58;;;;;;;164.10;59.77;;;-3272.40;75.20;;;;;;4997009;28;20041;-81
2021/12/13 02:11:27;;;;;;;189.20;64.20;;;-3272.40;75.20;;;;;;5013178;28;20114;-81
2021/12/13 02:14:10;;;;;;;180.73;62.73;;;-3272.40;75.30;;;;;;5013552;28;20101;-81
2021/12/13 02:17:01;;;;;;;183.20;61.00;;;-3272.30;75.30;;;;;;5013312;28;20497;-81
2021/12/13 02:19:32;;;;;;;175.07;61.27;;;-3272.30;75.30;;;;;;5009375;28;20482;-81
2021/12/13 02:22:07;;;;;;;185.63;65.10;;;-3272.30;75.30;;;;;;5011985;28;20364;-81
2021/12/13 02:24:36;;;;;;;177.27;61.20;;;-3272.20;75.30;;;;;;5013042;28;20502;-80
2021/12/13 02:27:04;;;;;;;184.03;60.30;;;-3272.30;75.40;;;;;;4993567;28;20026;-82
2021/12/13 02:29:36;;;;;;;178.97;58.17;;;-3272.30;75.30;;;;;;5012880;28;20026;-82
2021/12/13 02:32:09;;;;;;;162.43;57.57;;;-3272.30;75.30;;;;;;5012873;28;20036;-82
2021/12/13 02:34:42;;;;;;;151.07;54.87;;;-3272.20;75.30;;;;;;5012943;28;20022;-82
2021/12/13 02:37:09;;;;;;;164.20;55.00;;;-3272.20;75.30;;;;;;4997210;28;20037;-81
2021/12/13 02:39:49;;;;;;;180.23;56.87;;;-3272.20;75.30;;;;;;5013730;28;20026;-81
2021/12/13 02:42:18;;;;;;;158.17;54.13;;;-3272.20;75.30;;;;;;5008821;28;20022;-81
2021/12/13 02:44:51;;;;;;;170.43;56.87;;;-3272.20;75.40;;;;;;5012882;28;20022;-82
2021/12/13 02:47:34;;;;;;;161.47;54.47;;;-3272.20;75.40;;;;;;5014160;28;20105;-81
2021/12/13 02:50:01;;;;;;;159.30;54.70;;;-3272.10;75.30;;;;;;5003728;28;20025;-81
2021/12/13 02:52:27;;;;;;;178.17;57.80;;;-3272.20;75.30;;;;;;5013015;28;20034;-82
2021/12/13 02:55:00;;;;;;;153.03;56.67;;;-3272.10;75.30;;;;;;5013105;28;20026;-81
2021/12/13 02:57:43;;;;;;;149.33;53.70;;;-3272.10;75.30;;;;;;5013241;28;20112;-81
2021/12/13 03:00:27;;;;;;;155.73;56.77;;;-3272.00;75.30;;;;;;5013120;28;20124;-81
2021/12/13 03:02:56;;;;;;;169.27;55.00;;;-3272.00;75.20;;;;;;5012973;28;20034;-81
2021/12/13 03:05:43;;;;;;;149.77;54.37;;;-3272.00;75.20;;;;;;5013099;28;20364;-81
2021/12/13 03:08:18;;;;;;;149.47;51.27;;;-3272.00;75.30;;;;;;5012641;28;20030;-81
2021/12/13 03:10:49;;;;;;;121.50;42.70;;;-3272.00;75.30;;;;;;5012723;28;20052;-80
2021/12/13 03:13:16;;;;;;;135.00;45.77;;;-3272.00;75.30;;;;;;5012453;28;20453;-82
2021/12/13 03:15:47;;;;;;;121.10;43.70;;;-3272.00;75.20;;;;;;5012371;28;20109;-82
2021/12/13 03:18:19;;;;;;;116.70;43.93;;;-3271.90;75.20;;;;;;5012085;28;20022;-81
2021/12/13 03:21:12;;;;;;;125.97;41.17;;;-3271.90;75.20;;;;;;5012349;28;20057;-81
2021/12/13 03:24:00;;;;;;;120.03;45.90;;;-3271.80;75.20;;;;;;5012526;28;20030;-82
2021/12/13 03:26:53;;;;;;;123.70;41.00;;;-3271.80;75.20;;;;;;5014447;28;20029;-81
2021/12/13 03:29:27;;;;;;;127.63;42.20;;;-3271.80;75.20;;;;;;5012688;28;20033;-82
2021/12/13 03:31:57;;;;;;;112.03;43.10;;;-3271.80;75.20;;;;;;5012714;28;20037;-82
2021/12/13 03:34:31;;;;;;;119.90;44.40;;;-3271.70;75.20;;;;;;5012649;28;20026;-81
2021/12/13 03:37:24;;;;;;;113.17;40.17;;;-3271.70;75.20;;;;;;5012731;28;20045;-80
2021/12/13 03:39:59;;;;;;;119.20;41.07;;;-3271.70;75.20;;;;;;5008008;28;20041;-82
2021/12/13 03:42:32;;;;;;;121.30;42.93;;;-3271.70;75.20;;;;;;5012622;28;20510;-81
2021/12/13 03:45:09;;;;;;;128.27;46.30;;;-3271.70;75.20;;;;;;5012508;28;20026;-82
2021/12/13 03:47:43;;;;;;;123.47;43.60;;;-3271.70;75.10;;;;;;5013668;28;20030;-81
2021/12/13 03:50:15;;;;;;;122.67;42.07;;;-3271.70;75.10;;;;;;5012378;28;20021;-81
2021/12/13 03:52:44;;;;;;;119.73;41.57;;;-3271.70;75.10;;;;;;5016257;28;20544;-81
2021/12/13 03:55:13;;;;;;;116.13;42.17;;;-3271.70;75.20;;;;;;5016188;28;20018;-81
2021/12/13 03:57:46;;;;;;;125.07;44.90;;;-3271.60;75.20;;;;;;5016118;28;20028;-81
2021/12/13 04:00:14;;;;;;;110.40;40.67;;;-3271.70;75.10;;;;;;5016082;28;20112;-82
2021/12/13 04:02:42;;;;;;;107.67;38.50;;;-3271.70;75.10;;;;;;5011326;28;20121;-82
2021/12/13 04:05:12;;;;;;;122.37;40.03;;;-3271.60;75.10;;;;;;5015554;28;20033;-82
2021/12/13 04:07:53;;;;;;;121.93;42.70;;;-3271.60;75.10;;;;;;5015559;28;20112;-82
2021/12/13 04:10:23;;;;;;;122.40;41.23;;;-3271.60;75.10;;;;;;5015582;28;20022;-82
2021/12/13 04:12:52;;;;;;;108.90;40.63;;;-3271.60;75.10;;;;;;5015599;28;20388;-82
2021/12/13 04:15:36;;;;;;;112.30;38.00;;;-3271.60;75.10;;;;;;5015164;28;20032;-82
2021/12/13 04:18:28;;;;;;;94.50;37.77;;;-3271.50;75.00;;;;;;5015547;28;20096;-82
2021/12/13 04:21:02;;;;;;;103.93;36.73;;;-3271.50;75.00;;;;;;5015559;28;20029;-82
2021/12/13 04:23:29;;;;;;;94.20;33.80;;;-3271.50;74.90;;;;;;5011621;28;20026;-81
2021/12/13 04:25:56;;;;;;;94.53;34.27;;;-3271.50;74.90;;;;;;5015158;28;20026;-82
2021/12/13 04:28:44;;;;;;;105.43;34.57;;;-3271.40;75.00;;;;;;5016370;28;20467;-82
2021/12/13 04:31:14;;;;;;;90.77;33.73;;;-3271.40;75.10;;;;;;5012705;28;20029;-81
2021/12/13 04:33:46;;;;;;;110.87;37.07;;;-3271.50;75.10;;;;;;5015530;28;20049;-82
2021/12/13 04:36:22;;;;;;;100.37;37.20;;;-3271.50;75.00;;;;;;5015190;28;20026;-82
2021/12/13 04:38:57;;;;;;;125.40;37.25;;;-3271.50;75.00;;;;;;5015599;28;20060;-82
2021/12/13 04:41:41;;;;;;;109.50;39.70;;;-3271.50;75.00;;;;;;5015829;28;20030;-81
2021/12/13 04:44:11;;;;;;;111.27;41.63;;;-3271.40;74.90;;;;;;5015429;28;20020;-81
2021/12/13 04:46:40;;;;;;;112.83;39.60;;;-3271.40;74.90;;;;;;5013332;28;20065;-82
2021/12/13 04:49:10;;;;;;;104.73;42.23;;;-3271.40;74.90;;;;;;5015474;28;20422;-81
2021/12/13 04:52:01;;;;;;;136.07;50.47;;;-3271.40;74.90;;;;;;5015313;28;20030;-82
2021/12/13 04:54:30;;;;;;;126.43;47.33;;;-3271.40;75.00;;;;;;5007925;28;20092;-82
2021/12/13 04:56:58;;;;;;;144.00;45.13;;;-3271.50;75.00;;;;;;5015370;28;20124;-82
2021/12/13 04:59:25;;;;;;;113.93;42.33;;;-3271.50;75.00;;;;;;5015808;28;20030;-82
2021/12/13 05:01:54;;;;;;;112.07;40.60;;;-3271.50;75.00;;;;;;5014844;28;20061;-81
2021/12/13 05:04:21;;;;;;;119.10;42.77;;;-3271.50;75.00;;;;;;5014959;28;20030;-82
2021/12/13 05:06:49;;;;;;;127.67;44.03;;;-3271.40;75.00;;;;;;5015617;28;20030;-81
2021/12/13 05:09:18;;;;;;;122.07;45.17;;;-3271.50;75.10;;;;;;5011688;28;20029;-82
2021/12/13 05:11:49;;;;;;;123.47;42.37;;;-3271.50;75.10;;;;;;5014282;28;20076;-81
2021/12/13 05:14:16;;;;;;;112.77;43.17;;;-3271.50;75.00;;;;;;5014342;28;20021;-81
2021/12/13 05:16:49;;;;;;;129.30;44.63;;;-3271.50;75.00;;;;;;5014207;28;20402;-81
2021/12/13 05:19:24;;;;;;;120.50;46.03;;;-3271.50;75.00;;;;;;5007091;28;20040;-82
2021/12/13 05:21:51;;;;;;;119.13;46.67;;;-3271.40;75.00;;;;;;5015303;28;20034;-82
2021/12/13 05:24:24;;;;;;;141.53;46.07;;;-3271.40;75.00;;;;;;5014211;28;20439;-81
2021/12/13 05:26:53;;;;;;;121.07;43.53;;;-3271.40;75.00;;;;;;5013898;28;20022;-82
2021/12/13 05:29:45;;;;;;;132.80;47.03;;;-3271.40;75.00;;;;;;5013478;28;20018;-81
2021/12/13 05:32:19;;;;;;;124.57;43.80;;;-3271.40;75.00;;;;;;5014229;28;20539;-81
2021/12/13 05:35:02;;;;;;;107.87;42.97;;;-3271.40;74.90;;;;;;5014205;28;20036;-81
2021/12/13 05:37:43;;;;;;;126.27;42.63;;;-3271.40;74.90;;;;;;5013872;28;20080;-81
2021/12/13 05:40:14;;;;;;;121.77;43.47;;;-3271.40;74.90;;;;;;5014018;28;20029;-80
2021/12/13 05:42:53;;;;;;;118.27;42.17;;;-3271.40;74.90;;;;;;5015139;28;20072;-83
2021/12/13 05:45:30;;;;;;;125.37;42.43;;;-3271.40;74.90;;;;;;5014427;28;20013;-82
2021/12/13 05:47:57;;;;;;;117.30;45.67;;;-3271.30;74.90;;;;;;5013910;28;20068;-82
2021/12/13 05:50:37;;;;;;;117.50;42.77;;;-3271.30;74.90;;;;;;5005947;28;20033;-82
2021/12/13 05:53:12;;;;;;;109.83;38.90;;;-3271.30;74.90;;;;;;5013788;28;20013;-82
2021/12/13 05:55:48;;;;;;;105.40;39.03;;;-3271.30;74.90;;;;;;5013884;28;20036;-81
2021/12/13 05:58:31;;;;;;;108.88;40.42;;;-3271.30;74.90;;;;;;5004256;28;20027;-82
2021/12/13 06:00:58;;;;;;;114.50;41.17;;;-3271.30;74.90;;;;;;5013423;28;20034;-82
2021/12/13 06:03:35;;;;;;;93.33;38.60;;;-3271.30;74.90;;;;;;5013565;28;20082;-81
2021/12/13 06:06:10;;;;;;;129.60;44.47;;;-3271.30;74.90;;;;;;5013479;28;20033;-81
2021/12/13 06:08:45;;;;;;;126.43;39.93;;;-3271.30;74.90;;;;;;5013659;28;20034;-82
2021/12/13 06:11:33;;;;;;;120.87;37.27;;;-3271.30;74.90;;;;;;5013824;28;20033;-81
2021/12/13 06:14:13;;;;;;;121.93;40.47;;;-3271.30;74.90;;;;;;5013071;28;20014;-81
2021/12/13 06:17:16;;;;;;;106.20;38.57;;;-3271.30;74.90;;;;;;5013570;28;20478;-82
2021/12/13 06:19:55;;;;;;;99.50;36.83;;;-3271.30;74.90;;;;;;5013309;28;20025;-81
2021/12/13 06:22:23;;;;;;;123.33;38.90;;;-3271.30;74.80;;;;;;5013341;28;20052;-81
2021/12/13 06:25:06;;;;;;;111.10;40.23;;;-3271.30;74.80;;;;;;5013395;28;20061;-81
2021/12/13 06:27:41;;;;;;;128.10;38.93;;;-3271.30;74.80;;;;;;5013166;28;20052;-82
2021/12/13 06:30:25;;;;;;;120.70;39.73;;;-3271.30;74.80;;;;;;5013355;28;20049;-82
2021/12/13 06:32:57;;;;;;;134.87;41.57;;;-3271.30;74.80;;;;;;5013447;28;20084;-81
2021/12/13 06:35:45;;;;;;;112.93;39.40;;;-3271.30;74.80;;;;;;5014591;28;20030;-81
2021/12/13 06:38:19;;;;;;;116.73;39.23;;;-3271.30;74.80;;;;;;5013213;28;20533;-81
2021/12/13 06:40:53;;;;;;;122.23;39.37;;;-3271.30;74.80;;;;;;5008370;28;20021;-81
2021/12/13 06:43:30;;;;;;;126.87;42.10;;;-3271.20;74.80;;;;;;5014551;28;20045;-80
2021/12/13 06:45:58;;;;;;;142.13;43.03;;;-3271.20;74.80;;;;;;5013820;28;20024;-83
2021/12/13 06:48:40;;;;;;;155.73;49.03;;;-3271.20;74.80;;;;;;5013292;28;20509;-82
2021/12/13 06:51:08;;;;;;;137.77;42.57;;;-3271.20;74.90;;;;;;4999719;28;20022;-81
2021/12/13 06:53:35;;;;;;;133.80;42.20;;;-3271.20;74.90;;;;;;5013509;28;20021;-82
2021/12/13 06:56:30;;;;;;;125.67;41.53;;;-3271.30;74.90;;;;;;5013424;28;20426;-82
2021/12/13 06:58:58;;;;;;;115.73;40.00;;;-3271.30;74.90;;;;;;4993983;28;20034;-81
2021/12/13 07:01:29;;;;;;;104.63;38.17;;;-3271.30;74.80;;;;;;5000389;28;20034;-82
2021/12/13 07:04:02;;;;;;;113.23;38.37;;;-3271.40;74.90;;;;;;5013224;28;20037;-82
2021/12/13 07:06:28;;;;;;;99.57;35.30;;;-3271.40;74.90;;;;;;5013289;28;20471;-82
2021/12/13 07:09:16;;;;;;;111.50;39.87;;;-3271.50;74.90;;;;;;5013421;28;20088;-82
2021/12/13 07:11:50;;;;;;;116.37;41.30;;;-3271.50;74.90;;;;;;5013141;28;20033;-82
2021/12/13 07:14:19;;;;;;;115.17;40.93;;;-3271.60;74.90;;;;;;5013055;28;20049;-82
2021/12/13 07:16:51;;;;;;;124.50;40.43;;;-3271.70;74.90;;;;;;5012901;28;20442;-82
2021/12/13 07:19:26;;;;;;;119.33;41.23;;;-3271.70;74.90;;;;;;5012815;28;20026;-82
2021/12/13 07:22:04;;;;;;;123.27;41.67;;;-3271.70;74.80;;;;;;5012758;28;20483;-82
2021/12/13 07:24:42;;;;;;;133.80;43.80;;;-3271.80;74.80;;;;;;5012812;28;20084;-83
2021/12/13 07:27:18;;;;;;;129.63;45.07;;;-3271.90;74.80;;;;;;5014633;28;20101;-82
2021/12/13 07:29:46;;;;;;;128.73;44.20;;;-3271.90;74.80;;;;;;5006480;28;20549;-83
2021/12/13 07:32:18;;;;;;;116.73;44.07;;;-3272.00;74.80;;;;;;5016910;28;20034;-82
2021/12/13 07:34:57;;;;;;;129.90;47.03;;;-3272.00;74.80;;;;;;5018295;28;20395;-81
2021/12/13 07:37:46;;;;;;;121.43;48.90;;;-3272.10;74.80;;;;;;5016936;28;20092;-83
2021/12/13 07:40:39;;;;;;;133.70;47.70;;;-3272.20;74.80;;;;;;5016832;28;20041;-82
2021/12/13 07:43:10;;;;;;;138.43;46.43;;;-3272.30;74.80;;;;;;5016509;28;20030;-81
2021/12/13 07:45:57;;;;;;;155.37;53.47;;;-3272.40;74.80;;;;;;5016317;28;20065;-83
2021/12/13 07:48:24;;;;;;;;;;;-3272.50;74.80;;;;;;5017534;28;20034;-82
2021/12/13 07:51:20;;;;;;;128.17;48.10;;;-3272.60;74.90;;;;;;5017779;28;19956;-82
2021/12/13 07:53:49;;;;;;;145.50;51.10;;;-3272.70;74.60;;;;;;5016552;28;20014;-83
2021/12/13 07:56:24;;;;;;;157.17;53.73;;;-3272.80;74.60;;;;;;5016741;28;20204;-82
2021/12/13 07:58:57;;;;;;;150.90;52.97;;;-3272.90;74.70;;;;;;5016214;28;20034;-82
2021/12/13 08:01:26;;;;;;;169.87;55.63;;;-3273.00;74.80;;;;;;5016087;28;20029;-83
2021/12/13 08:04:07;;;;;;;151.07;53.77;;;-3273.10;74.80;;;;;;5016937;28;20030;-83
2021/12/13 08:06:43;;;;;;;156.00;50.83;;;-3273.20;74.80;;;;;;5017837;28;20559;-81
2021/12/13 08:09:14;;;;;;;152.00;51.60;;;-3273.30;74.80;;;;;;5017784;28;20454;-83
2021/12/13 08:11:47;;;;;;;158.80;57.93;;;-3273.30;74.90;;;;;;5015552;28;20429;-82
2021/12/13 08:14:14;;;;;;;147.00;54.57;;;-3273.40;74.90;;;;;;5015970;28;20045;-82
2021/12/13 08:16:47;;;;;;;161.40;56.70;;;-3273.50;74.90;;;;;;5017015;28;20073;-83
2021/12/13 08:19:27;;;;;;;148.90;54.33;;;-3273.60;74.90;;;;;;5017139;28;20018;-81
2021/12/13 08:21:57;;;;;;;162.30;54.13;;;-3273.70;75.00;;;;;;5017033;28;20114;-83
2021/12/13 08:24:28;;;;;;;154.47;54.53;;;-3273.70;74.90;;;;;;5017008;28;20415;-81
2021/12/13 08:27:22;;;;;;;156.97;58.70;;;-3273.70;75.00;;;;;;5017146;28;20061;-83
2021/12/13 08:29:50;;;;;;;160.27;57.77;;;-3273.80;75.00;;;;;;5016333;28;20486;-83
2021/12/13 08:32:20;;;;;;;160.30;57.63;;;-3273.90;75.00;;;;;;5015836;28;20029;-83
2021/12/13 08:34:54;;;;;;;166.73;58.27;;;-3273.90;75.00;;;;;;5015147;28;20033;-84
2021/12/13 08:37:36;;;;;;;143.93;55.40;;;-3274.00;75.00;;;;;;5014456;28;20499;-81
2021/12/13 08:40:18;;;;;;;150.07;57.90;;;-3274.00;75.00;;;;;;5016290;28;20344;-82
2021/12/13 08:42:46;;;;;;;171.60;61.47;;;-3274.10;75.00;;;;;;5009239;28;20022;-82
2021/12/13 08:45:22;;;;;;;169.20;60.20;;;-3274.20;75.00;;;;;;5014986;28;20026;-82
2021/12/13 08:47:57;;;;;;;152.10;51.10;;;-3274.30;75.00;;;;;;5015103;28;20070;-82
2021/12/13 08:50:49;;;;;;;181.00;67.55;;;-3274.40;75.00;;;;;;5016141;28;20025;-83
2021/12/13 08:53:34;;;;;;;201.10;67.80;;;-3274.50;75.00;;;;;;5007856;28;20038;-82
2021/12/13 08:56:02;;;;;;;169.80;60.70;;;-3274.50;74.90;;;;;;5009086;28;20021;-84
2021/12/13 08:58:28;;;;;;;169.60;62.50;;;-3274.60;74.90;;;;;;5014555;28;20033;-83
2021/12/13 09:00:59;;;;;;;;;;;-3274.70;75.00;;;;;;5015410;28;20033;-82
2021/12/13 09:03:27;;;;;;;173.07;62.20;;;-3274.70;75.00;;;;;;5014663;28;20014;-82
2021/12/13 09:05:59;;;;;;;176.63;64.57;;;-3274.80;74.70;;;;;;5015006;28;20033;-83
2021/12/13 09:08:33;;;;;;;171.73;63.83;;;-3274.80;74.80;;;;;;5002138;28;20479;-82
2021/12/13 09:11:27;;;;;;;187.53;67.30;;;-3274.80;74.80;;;;;;5014207;28;20453;-83
2021/12/13 09:14:01;;;;;;;185.00;65.80;;;-3274.90;74.80;;;;;;5013804;28;20017;-83
2021/12/13 09:17:14;;;;;;;201.77;70.87;;;-3275.00;74.80;;;;;;5014394;28;20172;-82
2021/12/13 09:19:54;;;;;;;191.07;71.43;;;-3275.10;74.90;;;;;;4995990;28;20113;-83
2021/12/13 09:22:43;;;;;;;192.27;69.90;;;-3275.20;74.80;;;;;;5013712;28;20014;-82
2021/12/13 09:25:34;;;;;;;181.07;69.37;;;-3275.30;74.80;;;;;;5007966;28;20032;-82
2021/12/13 09:28:18;;;;;;;165.17;64.83;;;-3275.40;74.70;;;;;;5013606;28;20038;-82
2021/12/13 09:31:11;;;;;;;171.90;65.93;;;-3275.60;74.70;;;;;;5014146;28;20034;-82
2021/12/13 09:33:41;;;;;;;154.57;56.90;;;-3275.70;74.50;;;;;;5013367;28;20037;-82
2021/12/13 09:36:12;;;;;;;146.07;56.17;;;-3275.90;74.40;;;;;;5015098;28;20034;-81
2021/12/13 09:38:42;;;;;;;171.93;59.63;;;-3276.10;74.30;;;;;;5013322;28;20081;-84
2021/12/13 09:41:19;;;;;;;160.30;57.40;;;-3276.20;74.30;;;;;;5006920;28;20026;-83
2021/12/13 09:44:03;;;;;;;147.53;56.53;;;-3276.30;74.30;;;;;;5013469;28;20029;-82
2021/12/13 09:47:01;;;;;;;148.47;53.70;;;-3276.50;74.20;;;;;;5013426;28;20569;-83
2021/12/13 09:49:40;;;;;;;155.60;59.63;;;-3276.70;74.10;;;;;;5007662;28;20026;-83
2021/12/13 09:52:19;;;;;;;154.67;56.27;;;0.00;74.00;;;;;;5009119;28;20108;-83
2021/12/13 09:54:50;;;;;;;152.57;59.87;;;0.20;73.80;;;;;;5014762;28;20034;-83
2021/12/13 09:57:25;;;;;;;151.93;55.80;;;0.50;73.60;;;;;;5014381;28;20049;-83
2021/12/13 09:59:55;;;;;;;135.47;51.20;;;1.00;73.10;;;;;;5013380;28;20030;-84
2021/12/13 10:02:27;;;;;;;141.77;54.97;;;1.70;72.20;;;;;;4997957;28;20034;-83
2021/12/13 10:04:53;;;;;;;160.60;64.33;;;2.50;71.20;;;;;;5013160;28;20044;-83
2021/12/13 10:07:30;;;;;;;186.83;72.20;;;3.20;70.00;;;;;;5014971;28;20494;-82
2021/12/13 10:10:03;;;;;;;152.07;58.47;;;3.80;69.10;;;;;;5011979;28;20558;-83
2021/12/13 10:12:44;;;;;;;128.93;55.60;;;4.50;68.60;;;;;;5013457;28;20026;-83
2021/12/13 10:15:10;;;;;;;124.80;50.60;;;5.20;67.30;;;;;;5013554;28;20364;-83
2021/12/13 10:17:38;;;;;;;;;;;5.70;66.70;;;;;;5014508;28;20044;-83
2021/12/13 10:20:18;;;;;;;125.03;51.60;;;6.30;66.10;;;;;;5013873;28;20322;-83
2021/12/13 10:22:44;;;;;;;126.90;54.33;;;6.80;65.10;;;;;;5014771;28;20125;-82
2021/12/13 10:25:19;;;;;;;122.90;55.07;;;7.30;64.60;;;;;;5015349;28;20390;-82
2021/12/13 10:27:46;;;;;;;124.68;57.05;;;8.00;62.70;;;;;;5013043;28;20035;-82
2021/12/13 10:30:24;;;;;;;118.88;56.63;;;8.60;61.70;;;;;;5013602;28;20083;-81
2021/12/13 10:32:53;;;;;;;119.95;56.83;;;9.20;59.60;;;;;;5013514;28;20089;-83
2021/12/13 10:35:23;;;;;;;129.88;59.53;;;9.70;59.00;;;;;;5011447;28;20493;-83
2021/12/13 10:37:53;;;;;;;133.32;59.88;;;10.20;57.70;;;;;;5012537;28;20038;-82
2021/12/13 10:40:38;;;;;;;126.68;60.03;;;10.40;56.70;;;;;;5012683;28;20434;-83
2021/12/13 10:43:09;;;;;;;114.68;58.10;;;10.80;54.90;;;;;;5000753;28;20479;-82
2021/12/13 10:45:43;;;;;;;125.10;59.78;;;11.10;54.80;;;;;;5012934;28;20116;-82
2021/12/13 10:48:11;;;;;;;117.80;59.85;;;11.20;53.70;;;;;;5012703;28;20377;-82
2021/12/13 10:50:53;;;;;;;131.95;60.65;;;11.10;53.60;;;;;;5012771;28;20502;-82
2021/12/13 10:53:23;;;;;;;122.75;59.80;;;10.80;52.80;;;;;;5011601;28;20041;-82
2021/12/13 10:56:01;;;;;;;128.85;62.17;;;10.30;53.50;;;;;;5013000;28;20026;-82
2021/12/13 10:58:32;;;;;;;128.60;60.65;;;9.70;53.40;;;;;;5013724;28;20033;-82
2021/12/13 11:01:11;;;;;;;130.00;59.08;;;9.30;54.20;;;;;;5014194;28;20029;-82
2021/12/13 11:03:38;;;;;;;127.50;59.38;;;8.80;54.10;;;;;;5012370;28;20088;-82
2021/12/13 11:06:06;;;;;;;127.40;60.58;;;8.40;55.00;;;;;;5017974;28;20117;-83
2021/12/13 11:08:41;;;;;;;124.57;58.78;;;8.20;55.20;;;;;;5018785;28;20053;-82
2021/12/13 11:11:18;;;;;;;130.68;59.15;;;8.10;55.20;;;;;;5017867;28;20025;-82
2021/12/13 11:13:45;;;;;;;138.23;59.45;;;8.10;54.80;;;;;;5015038;28;20026;-83
2021/12/13 11:16:22;;;;;;;126.28;57.38;;;7.80;55.00;;;;;;5018563;28;20080;-81
2021/12/13 11:19:28;;;;;;;120.78;55.53;;;7.60;55.00;;;;;;5011149;28;20056;-83
2021/12/13 11:22:03;;;;;;;127.13;55.38;;;7.30;55.00;;;;;;5016580;28;20065;-83
2021/12/13 11:24:33;;;;;;;121.70;55.38;;;7.30;55.40;;;;;;4999501;28;20085;-82
2021/12/13 11:27:06;;;;;;;125.68;54.22;;;7.50;55.10;;;;;;5017740;28;20026;-83
2021/12/13 11:29:32;;;;;;;133.00;57.15;;;7.80;54.40;;;;;;5016968;28;20046;-82
2021/12/13 11:32:31;;;;;;;138.38;58.72;;;7.90;54.10;;;;;;5018069;28;20053;-82
2021/12/13 11:35:39;;;;;;;122.00;57.92;;;7.80;53.90;;;;;;4997353;28;20043;-82
2021/12/13 11:38:29;;;;;;;123.75;56.95;;;7.60;54.10;;;;;;4998891;28;20525;-81
2021/12/13 11:41:30;;;;;;;135.85;60.10;;;7.40;54.40;;;;;;5016851;28;20034;-82
2021/12/13 11:44:20;;;;;;;125.95;58.72;;;7.20;54.60;;;;;;5004077;28;20038;-82
2021/12/13 11:47:24;;;;;;;131.67;56.80;;;7.00;55.00;;;;;;5016705;28;20043;-83
2021/12/13 11:50:17;;;;;;;141.77;62.07;;;6.80;55.10;;;;;;5017353;28;20391;-82
2021/12/13 11:53:01;;;;;;;138.20;61.33;;;6.70;55.30;;;;;;5018116;28;20030;-81
2021/12/13 11:55:58;;;;;;;141.73;60.73;;;6.50;55.60;;;;;;5017570;28;20479;-82
2021/12/13 11:58:42;;;;;;;131.83;58.03;;;6.50;55.70;;;;;;5011789;28;20033;-81
2021/12/13 12:01:32;;;;;;;141.13;59.43;;;6.60;55.70;;;;;;5015760;28;20053;-82
2021/12/13 12:04:07;;;;;;;99.30;43.17;;;6.60;55.70;;;;;;5010468;28;20034;-82
2021/12/13 12:07:08;;;;;;;138.30;57.43;;;6.50;55.90;;;;;;5015027;28;20026;-83
2021/12/13 12:10:02;;;;;;;138.23;60.47;;;6.50;55.90;;;;;;4964021;28;20495;-82
2021/12/13 12:12:45;;;;;;;128.70;54.20;;;6.60;55.80;;;;;;5009914;28;20483;-83
2021/12/13 12:15:12;;;;;;;127.87;57.37;;;6.90;55.50;;;;;;5000256;28;20018;-83
2021/12/13 12:17:38;;;;;;;129.57;57.57;;;7.50;54.90;;;;;;5015236;28;20060;-83
2021/12/13 12:20:16;;;;;;;121.28;55.15;;;8.10;54.00;;;;;;5014787;28;20029;-82
2021/12/13 12:22:42;;;;;;;118.63;56.50;;;8.80;52.60;;;;;;5015263;28;20038;-82
2021/12/13 12:25:08;;;;;;;125.97;57.00;;;9.30;52.10;;;;;;5014854;28;20060;-82
2021/12/13 12:27:35;;;;;;;;;;;9.90;51.00;;;;;;4999261;28;20486;-82
2021/12/13 12:30:07;;;;;;;126.32;57.40;;;10.30;50.80;;;;;;5015548;28;19968;-82
2021/12/13 12:32:35;;;;;;;132.90;62.05;;;10.70;50.20;;;;;;5015398;28;20026;-82
2021/12/13 12:35:11;;;;;;;124.93;62.00;;;11.00;49.60;;;;;;5014382;28;20029;-81
2021/12/13 12:37:55;;;;;;;101.63;51.05;;;11.30;49.10;;;;;;5015735;28;20399;-82
2021/12/13 12:40:27;;;;;;;142.65;66.78;;;11.70;48.80;;;;;;5007475;28;20034;-82
2021/12/13 12:46:13;;;;;;;136.90;68.07;;;12.10;47.00;;;;;;5014041;28;20506;-82
2021/12/13 12:48:48;;;;;;;146.98;75.18;;;11.90;47.60;;;;;;5013014;28;20046;-82
2021/12/13 12:51:20;;;;;;;149.75;70.10;;;11.30;48.20;;;;;;5015416;28;20387;-82
2021/12/13 12:53:51;;;;;;;147.55;72.50;;;10.80;48.70;;;;;;5011388;28;20026;-83
2021/12/13 12:56:31;;;;;;;148.00;71.93;;;10.10;49.50;;;;;;5015777;28;20037;-82